createdAt,value
2019-06-10T00:02:17.659Z,22.73
2019-06-10T00:04:50.712Z,24.07
2019-06-10T00:07:21.143Z,21.77
2019-06-10T00:09:51.804Z,18.23
2019-06-10T00:12:22.910Z,23.73
2019-06-10T00:14:53.783Z,22.93
2019-06-10T00:17:24.584Z,25.03
2019-06-10T00:19:55.325Z,23.67
2019-06-10T00:22:26.054Z,18.93
2019-06-10T00:24:57.514Z,25.53
2019-06-10T00:27:31.181Z,22.17
2019-06-10T00:30:03.398Z,20.10
2019-06-10T00:32:33.959Z,23.67
2019-06-10T00:35:07.731Z,19.80
2019-06-10T00:37:38.684Z,22.37
2019-06-10T00:40:13.780Z,22.80
2019-06-10T00:42:42.176Z,19.97
2019-06-10T00:45:17.865Z,22.37
2019-06-10T00:47:45.468Z,21.27
2019-06-10T00:50:16.187Z,21.93
2019-06-10T00:52:47.217Z,27.07
2019-06-10T00:55:17.747Z,22.37
2019-06-10T00:57:50.848Z,28.03
2019-06-10T01:00:25.632Z,24.23
2019-06-10T01:02:52.814Z,23.23
2019-06-10T01:05:23.355Z,21.80
2019-06-10T01:07:54.043Z,28.67
2019-06-10T01:10:25.543Z,24.20
2019-06-10T01:12:57.200Z,28.27
2019-06-10T01:15:27.772Z,27.63
2019-06-10T01:17:58.363Z,21.10
2019-06-10T01:20:28.885Z,29.33
2019-06-10T01:23:01.504Z,25.70
2019-06-10T01:25:31.405Z,23.10
2019-06-10T01:28:05.619Z,27.43
2019-06-10T01:30:36.281Z,24.33
2019-06-10T01:33:06.701Z,23.77
2019-06-10T01:35:37.292Z,29.37
2019-06-10T01:38:07.905Z,23.40
2019-06-10T01:40:38.320Z,24.60
2019-06-10T01:43:11.040Z,26.17
2019-06-10T01:45:41.944Z,21.33
2019-06-10T01:48:14.926Z,32.37
2019-06-10T01:50:44.674Z,21.23
2019-06-10T01:53:16.075Z,19.90
2019-06-10T01:55:47.432Z,22.63
2019-06-10T01:58:23.213Z,21.73
2019-06-10T02:01:23.346Z,20.23
2019-06-10T02:03:55.349Z,25.13
2019-06-10T02:06:26.149Z,24.63
2019-06-10T02:09:05.778Z,21.93
2019-06-10T02:11:37.241Z,24.80
2019-06-10T02:14:09.403Z,24.90
2019-06-10T02:16:41.512Z,23.30
2019-06-10T02:19:14.254Z,23.90
2019-06-10T02:21:44.181Z,27.37
2019-06-10T02:24:16.415Z,24.23
2019-06-10T02:26:47.497Z,25.70
2019-06-10T02:29:19.704Z,32.27
2019-06-10T02:31:52.230Z,27.70
2019-06-10T02:34:27.112Z,26.87
2019-06-10T02:36:55.019Z,34.77
2019-06-10T02:39:33.461Z,28.40
2019-06-10T02:42:04.420Z,31.00
2019-06-10T02:44:37.509Z,30.80
2019-06-10T02:47:08.173Z,33.00
2019-06-10T02:49:56.472Z,28.53
2019-06-10T02:52:24.662Z,34.73
2019-06-10T02:54:53.421Z,32.50
2019-06-10T02:57:30.488Z,30.27
2019-06-10T02:59:56.591Z,31.40
2019-06-10T03:02:31.534Z,28.87
2019-06-10T03:04:59.577Z,33.43
2019-06-10T03:07:34.875Z,29.87
2019-06-10T03:10:04.640Z,33.43
2019-06-10T03:12:35.714Z,31.60
2019-06-10T03:15:07.635Z,29.60
2019-06-10T03:17:38.540Z,32.20
2019-06-10T03:20:09.320Z,32.80
2019-06-10T03:22:42.147Z,28.23
2019-06-10T03:25:26.482Z,31.30
2019-06-10T03:27:57.819Z,31.23
2019-06-10T03:30:44.236Z,32.37
2019-06-10T03:33:04.661Z,35.57
2019-06-10T03:35:33.086Z,29.53
2019-06-10T03:38:04.916Z,30.43
2019-06-10T03:40:35.384Z,27.13
2019-06-10T03:43:05.853Z,28.37
2019-06-10T03:45:36.451Z,28.80
2019-06-10T03:48:07.659Z,30.57
2019-06-10T03:50:38.105Z,31.73
2019-06-10T03:53:08.548Z,30.07
2019-06-10T03:55:39.504Z,30.70
2019-06-10T03:58:12.460Z,29.37
2019-06-10T04:00:43.116Z,29.63
2019-06-10T04:03:13.603Z,30.00
2019-06-10T04:05:44.190Z,31.47
2019-06-10T04:08:14.608Z,28.63
2019-06-10T04:10:45.112Z,24.90
2019-06-10T04:13:15.639Z,27.50
2019-06-10T04:15:46.209Z,28.10
2019-06-10T04:18:17.829Z,25.63
2019-06-10T04:20:48.693Z,24.37
2019-06-10T04:23:19.684Z,24.03
2019-06-10T04:25:52.538Z,23.87
2019-06-10T04:28:24.685Z,24.57
2019-06-10T04:30:54.948Z,21.63
2019-06-10T04:33:26.206Z,26.47
2019-06-10T04:35:58.254Z,21.57
2019-06-10T04:38:29.110Z,21.83
2019-06-10T04:40:59.831Z,24.90
2019-06-10T04:43:32.313Z,21.93
2019-06-10T04:46:02.821Z,22.13
2019-06-10T04:48:33.373Z,23.93
2019-06-10T04:51:04.818Z,23.10
2019-06-10T04:53:35.341Z,24.57
2019-06-10T04:56:05.745Z,22.53
2019-06-10T04:58:36.301Z,25.93
2019-06-10T05:01:06.839Z,19.20
2019-06-10T05:03:37.563Z,25.53
2019-06-10T05:06:08.071Z,23.40
2019-06-10T05:08:38.917Z,18.07
2019-06-10T05:11:12.628Z,19.40
2019-06-10T05:13:48.594Z,20.40
2019-06-10T05:16:19.565Z,22.20
2019-06-10T05:18:54.028Z,18.07
2019-06-10T05:21:25.068Z,24.73
2019-06-10T05:23:55.052Z,17.07
2019-06-10T05:26:27.163Z,25.27
2019-06-10T05:28:57.812Z,22.43
2019-06-10T05:31:30.064Z,25.13
2019-06-10T05:34:02.393Z,29.27
2019-06-10T05:36:34.778Z,18.20
2019-06-10T05:39:07.910Z,21.00
2019-06-10T05:41:39.051Z,18.80
2019-06-10T05:44:09.606Z,21.33
2019-06-10T05:46:40.394Z,15.13
2019-06-10T05:49:12.556Z,19.47
2019-06-10T05:51:43.278Z,19.43
2019-06-10T05:54:13.979Z,15.83
2019-06-10T05:56:44.572Z,17.43
2019-06-10T05:59:15.538Z,18.10
2019-06-10T06:01:46.235Z,17.80
2019-06-10T06:04:16.774Z,14.57
2019-06-10T06:06:47.484Z,15.25
2019-06-10T06:09:18.482Z,14.67
2019-06-10T06:11:49.291Z,15.50
2019-06-10T06:14:19.776Z,14.28
2019-06-10T06:16:53.187Z,14.63
2019-06-10T06:19:23.151Z,16.23
2019-06-10T06:21:53.863Z,18.52
2019-06-10T06:24:25.557Z,19.73
2019-06-10T06:26:56.401Z,19.55
2019-06-10T06:29:27.221Z,13.25
2019-06-10T06:31:58.046Z,13.83
2019-06-10T06:34:28.534Z,14.95
2019-06-10T06:36:59.419Z,15.63
2019-06-10T06:39:32.255Z,12.35
2019-06-10T06:42:02.719Z,12.88
2019-06-10T06:44:36.091Z,9.78
2019-06-10T06:47:05.334Z,19.32
2019-06-10T06:49:37.095Z,11.85
2019-06-10T06:52:08.838Z,17.07
2019-06-10T06:54:42.505Z,17.90
2019-06-10T06:57:13.471Z,25.90
2019-06-10T06:59:44.336Z,9.80
2019-06-10T07:02:15.533Z,10.08
2019-06-10T07:04:46.740Z,9.93
2019-06-10T07:07:22.089Z,9.83
2019-06-10T07:09:54.131Z,9.88
2019-06-10T07:12:26.875Z,16.10
2019-06-10T07:14:59.877Z,28.85
2019-06-10T07:17:32.003Z,11.80
2019-06-10T07:20:04.025Z,14.75
2019-06-10T07:22:36.883Z,10.55
2019-06-10T07:25:08.194Z,8.88
2019-06-10T07:27:42.864Z,8.75
2019-06-10T07:30:18.123Z,13.28
2019-06-10T07:32:49.307Z,10.38
2019-06-10T07:35:22.068Z,12.55
2019-06-10T07:37:52.445Z,15.90
2019-06-10T07:40:24.367Z,14.13
2019-06-10T07:42:54.938Z,15.55
2019-06-10T07:45:25.923Z,17.37
2019-06-10T07:47:56.719Z,12.00
2019-06-10T07:50:27.443Z,12.35
2019-06-10T07:52:57.963Z,14.73
2019-06-10T07:55:28.948Z,12.23
2019-06-10T07:57:59.437Z,13.33
2019-06-10T08:00:30.463Z,15.17
2019-06-10T08:03:02.435Z,14.23
2019-06-10T08:05:34.206Z,10.00
2019-06-10T08:08:05.689Z,19.67
2019-06-10T08:10:37.043Z,16.67
2019-06-10T08:13:07.661Z,15.60
2019-06-10T08:15:39.735Z,12.63
2019-06-10T08:18:12.990Z,15.63
2019-06-10T08:20:47.473Z,12.33
2019-06-10T08:23:19.547Z,18.47
2019-06-10T08:25:56.575Z,14.97
2019-06-10T08:28:23.342Z,17.57
2019-06-10T08:30:53.829Z,11.63
2019-06-10T08:33:24.536Z,13.83
2019-06-10T08:36:00.208Z,10.23
2019-06-10T08:38:27.397Z,13.80
2019-06-10T08:40:57.905Z,11.50
2019-06-10T08:43:28.665Z,13.43
2019-06-10T08:45:59.103Z,19.60
2019-06-10T08:48:29.760Z,17.30
2019-06-10T08:51:03.269Z,17.97
2019-06-10T08:53:33.320Z,10.60
2019-06-10T08:56:03.981Z,16.00
2019-06-10T08:58:34.909Z,11.83
2019-06-10T09:01:05.779Z,12.23
2019-06-10T09:03:38.539Z,14.00
2019-06-10T09:06:08.621Z,13.87
2019-06-10T09:08:41.070Z,13.77
2019-06-10T09:11:13.002Z,12.73
2019-06-10T09:13:48.054Z,17.80
2019-06-10T09:16:19.474Z,17.20
2019-06-10T09:18:52.034Z,12.80
2019-06-10T09:21:22.469Z,11.77
2019-06-10T09:23:59.853Z,13.63
2019-06-10T09:26:25.884Z,13.47
2019-06-10T09:28:56.813Z,14.33
2019-06-10T09:31:27.738Z,14.03
2019-06-10T09:33:58.350Z,13.80
2019-06-10T09:36:29.285Z,15.90
2019-06-10T09:39:00.014Z,15.07
2019-06-10T09:41:37.349Z,20.93
2019-06-10T09:44:03.366Z,14.53
2019-06-10T09:46:36.542Z,11.10
2019-06-10T09:49:07.558Z,11.50
2019-06-10T09:51:38.494Z,11.93
2019-06-10T09:54:09.262Z,11.93
2019-06-10T09:56:41.105Z,16.20
2019-06-10T09:59:14.603Z,15.83
2019-06-10T10:01:49.067Z,9.63
2019-06-10T10:04:17.685Z,14.80
2019-06-10T10:06:51.846Z,14.67
2019-06-10T10:09:23.178Z,10.83
2019-06-10T10:11:55.307Z,12.43
2019-06-10T10:14:25.801Z,16.57
2019-06-10T10:17:00.271Z,9.27
2019-06-10T10:19:29.088Z,13.60
2019-06-10T10:21:59.830Z,14.80
2019-06-10T10:24:30.658Z,10.63
2019-06-10T10:27:05.217Z,10.90
2019-06-10T10:29:33.823Z,10.83
2019-06-10T10:32:04.561Z,13.23
2019-06-10T10:34:35.164Z,8.63
2019-06-10T10:37:05.774Z,12.30
2019-06-10T10:39:36.293Z,10.20
2019-06-10T10:42:07.007Z,11.50
2019-06-10T10:44:37.532Z,15.83
2019-06-10T10:47:08.036Z,18.67
2019-06-10T10:49:38.604Z,12.87
2019-06-10T10:52:09.437Z,12.73
2019-06-10T10:54:39.944Z,10.17
2019-06-10T10:57:13.050Z,12.87
2019-06-10T10:59:43.547Z,13.83
2019-06-10T11:02:14.840Z,10.73
2019-06-10T11:04:47.929Z,9.93
2019-06-10T11:07:18.615Z,12.33
2019-06-10T11:09:50.308Z,12.47
2019-06-10T11:12:22.920Z,11.23
2019-06-10T11:15:00.484Z,12.03
2019-06-10T11:17:27.812Z,15.40
2019-06-10T11:19:58.561Z,10.10
2019-06-10T11:22:29.118Z,14.00
2019-06-10T11:24:59.748Z,15.33
2019-06-10T11:27:32.989Z,11.10
2019-06-10T11:30:04.084Z,13.67
2019-06-10T11:32:34.971Z,11.20
2019-06-10T11:35:06.469Z,10.63
2019-06-10T11:37:37.613Z,16.93
2019-06-10T11:40:08.073Z,12.10
2019-06-10T11:42:38.565Z,19.53
2019-06-10T11:45:10.127Z,13.53
2019-06-10T11:47:42.595Z,13.80
2019-06-10T11:50:14.013Z,17.00
2019-06-10T11:52:45.003Z,15.57
2019-06-10T11:55:19.136Z,14.90
2019-06-10T11:57:47.960Z,13.03
2019-06-10T12:00:23.067Z,14.40
2019-06-10T12:02:55.547Z,13.70
2019-06-10T12:05:25.829Z,13.33
2019-06-10T12:07:59.801Z,17.07
2019-06-10T12:10:28.717Z,17.53
2019-06-10T12:13:04.254Z,15.13
2019-06-10T12:15:46.232Z,13.10
2019-06-10T12:18:08.450Z,15.57
2019-06-10T12:20:36.432Z,11.83
2019-06-10T12:23:07.125Z,17.60
2019-06-10T12:25:39.709Z,13.20
2019-06-10T12:28:09.816Z,18.27
2019-06-10T12:30:42.339Z,14.27
2019-06-10T12:33:21.438Z,19.30
2019-06-10T12:35:45.410Z,15.70
2019-06-10T12:38:15.947Z,18.23
2019-06-10T12:40:46.505Z,14.40
2019-06-10T12:43:17.840Z,12.83
2019-06-10T12:45:48.412Z,13.57
2019-06-10T12:48:19.448Z,12.60
2019-06-10T12:50:50.252Z,17.70
2019-06-10T12:53:22.917Z,13.03
2019-06-10T12:55:55.482Z,12.23
2019-06-10T12:58:25.823Z,11.20
2019-06-10T13:00:57.215Z,11.63
2019-06-10T13:03:28.005Z,10.20
2019-06-10T13:06:02.885Z,11.03
2019-06-10T13:08:35.726Z,11.30
2019-06-10T13:11:06.162Z,13.37
2019-06-10T13:13:36.737Z,12.73
2019-06-10T13:16:09.122Z,9.70
2019-06-10T13:18:39.619Z,12.30
2019-06-10T13:21:16.482Z,10.53
2019-06-10T13:23:43.331Z,10.33
2019-06-10T13:26:16.639Z,10.77
2019-06-10T13:28:46.343Z,13.50
2019-06-10T13:31:18.788Z,9.40
2019-06-10T13:33:49.616Z,15.60
2019-06-10T13:36:25.376Z,10.27
2019-06-10T13:38:53.383Z,19.97
2019-06-10T13:41:24.171Z,13.57
2019-06-10T13:43:54.967Z,12.00
2019-06-10T13:46:25.726Z,10.07
2019-06-10T13:48:56.944Z,10.37
2019-06-10T13:51:27.865Z,13.20
2019-06-10T13:53:58.711Z,9.03
2019-06-10T13:56:43.219Z,10.87
2019-06-10T13:59:04.198Z,10.57
2019-06-10T14:01:35.121Z,13.87
2019-06-10T14:04:13.773Z,12.33
2019-06-10T14:06:47.055Z,10.37
2019-06-10T14:09:16.025Z,24.33
2019-06-10T14:11:42.939Z,12.40
2019-06-10T14:14:17.413Z,8.87
2019-06-10T14:16:46.145Z,8.53
2019-06-10T14:19:16.916Z,11.17
2019-06-10T14:21:47.585Z,11.90
2019-06-10T14:24:18.316Z,9.57
2019-06-10T14:26:49.191Z,13.20
2019-06-10T14:29:20.129Z,9.73
2019-06-10T14:31:53.253Z,9.07
2019-06-10T14:34:22.993Z,13.27
2019-06-10T14:36:53.753Z,11.77
2019-06-10T14:39:24.715Z,11.00
2019-06-10T14:41:55.522Z,7.30
2019-06-10T14:44:26.189Z,8.23
2019-06-10T14:46:56.861Z,10.80
2019-06-10T14:49:27.424Z,7.70
2019-06-10T14:51:58.249Z,8.43
2019-06-10T14:54:28.992Z,9.93
2019-06-10T14:56:59.555Z,12.60
2019-06-10T14:59:30.283Z,7.37
2019-06-10T15:02:02.830Z,11.17
2019-06-10T15:04:33.550Z,15.83
2019-06-10T15:07:04.616Z,8.53
2019-06-10T15:09:35.364Z,9.63
2019-06-10T15:12:05.971Z,9.17
2019-06-10T15:14:36.774Z,11.40
2019-06-10T15:17:08.505Z,16.07
2019-06-10T15:19:39.277Z,11.07
2019-06-10T15:22:12.206Z,9.47
2019-06-10T15:24:42.896Z,11.03
2019-06-10T15:27:23.358Z,8.70
2019-06-10T15:29:46.857Z,11.33
2019-06-10T15:32:29.696Z,16.17
2019-06-10T15:34:49.657Z,8.80
2019-06-10T15:37:21.342Z,12.37
2019-06-10T15:39:52.924Z,17.03
2019-06-10T15:42:23.979Z,11.80
2019-06-10T15:44:55.992Z,9.33
2019-06-10T15:47:28.027Z,15.20
2019-06-10T15:49:58.891Z,7.40
2019-06-10T15:52:29.832Z,8.17
2019-06-10T15:55:00.398Z,9.03
2019-06-10T15:57:40.731Z,11.50
2019-06-10T16:00:11.251Z,12.93
2019-06-10T16:02:35.989Z,8.87
2019-06-10T16:05:07.194Z,13.17
2019-06-10T16:07:37.929Z,14.53
2019-06-10T16:10:09.029Z,10.10
2019-06-10T16:12:39.682Z,11.10
2019-06-10T16:15:13.326Z,12.10
2019-06-10T16:17:43.382Z,15.40
2019-06-10T16:20:15.802Z,9.13
2019-06-10T16:22:46.484Z,9.70
2019-06-10T16:25:17.779Z,10.00
2019-06-10T16:27:51.071Z,17.00
2019-06-10T16:30:23.171Z,11.63
2019-06-10T16:32:53.873Z,11.63
2019-06-10T16:35:26.782Z,11.83
2019-06-10T16:37:57.177Z,14.60
2019-06-10T16:40:27.872Z,8.83
2019-06-10T16:42:58.634Z,15.10
2019-06-10T16:45:33.849Z,14.23
2019-06-10T16:48:04.127Z,10.80
2019-06-10T16:50:35.025Z,18.57
2019-06-10T16:53:05.862Z,12.37
2019-06-10T16:55:36.545Z,18.10
2019-06-10T16:58:08.468Z,12.87
2019-06-10T17:00:39.655Z,11.03
2019-06-10T17:03:12.675Z,9.60
2019-06-10T17:05:43.389Z,13.20
2019-06-10T17:08:15.321Z,15.77
2019-06-10T17:10:46.460Z,17.63
2019-06-10T17:13:19.282Z,15.63
2019-06-10T17:15:49.772Z,13.57
2019-06-10T17:18:23.108Z,15.17
2019-06-10T17:20:53.681Z,16.10
2019-06-10T17:23:28.947Z,11.70
2019-06-10T17:25:58.569Z,16.17
2019-06-10T17:28:33.891Z,13.33
2019-06-10T17:31:03.734Z,13.43
2019-06-10T17:33:35.686Z,19.23
2019-06-10T17:36:06.365Z,21.00
2019-06-10T17:38:36.929Z,18.67
2019-06-10T17:41:07.780Z,15.23
2019-06-10T17:43:38.592Z,18.07
2019-06-10T17:46:09.374Z,11.93
2019-06-10T17:48:40.272Z,16.47
2019-06-10T17:51:11.151Z,11.50
2019-06-10T17:53:42.706Z,11.67
2019-06-10T17:56:13.706Z,15.77
2019-06-10T17:58:53.777Z,14.50
2019-06-10T18:01:17.241Z,11.03
2019-06-10T18:03:48.064Z,16.80
2019-06-10T18:06:18.757Z,18.17
2019-06-10T18:08:49.445Z,11.50
2019-06-10T18:11:20.119Z,16.70
2019-06-10T18:13:52.783Z,18.27
2019-06-10T18:16:24.523Z,10.03
2019-06-10T18:18:56.024Z,16.47
2019-06-10T18:21:26.901Z,16.77
2019-06-10T18:24:07.280Z,18.60
2019-06-10T18:26:30.978Z,12.07
2019-06-10T18:29:08.076Z,15.07
2019-06-10T18:31:36.767Z,16.80
2019-06-10T18:34:07.774Z,17.73
2019-06-10T18:36:38.764Z,25.20
2019-06-10T18:39:12.230Z,13.67
2019-06-10T18:41:42.201Z,17.20
2019-06-10T18:44:22.502Z,13.60
2019-06-10T18:46:45.667Z,12.77
2019-06-10T18:49:16.533Z,13.30
2019-06-10T18:51:47.380Z,13.27
2019-06-10T18:54:18.016Z,13.47
2019-06-10T18:56:48.886Z,15.03
2019-06-10T18:59:21.171Z,17.03
2019-06-10T19:01:52.703Z,15.53
2019-06-10T19:04:23.797Z,14.70
2019-06-10T19:06:54.641Z,13.73
2019-06-10T19:09:25.557Z,21.33
2019-06-10T19:11:56.299Z,16.03
2019-06-10T19:14:27.362Z,17.67
2019-06-10T19:16:58.240Z,19.67
2019-06-10T19:19:29.903Z,20.83
2019-06-10T19:22:08.220Z,15.43
2019-06-10T19:24:34.913Z,18.30
2019-06-10T19:27:05.787Z,16.47
2019-06-10T19:29:45.309Z,18.33
2019-06-10T19:32:09.373Z,11.37
2019-06-10T19:34:42.493Z,18.40
2019-06-10T19:37:13.035Z,18.82
2019-06-10T19:39:50.256Z,19.73
2019-06-10T19:42:17.414Z,16.23
2019-06-10T19:44:48.344Z,24.27
2019-06-10T19:47:18.997Z,19.63
2019-06-10T19:49:52.119Z,19.30
2019-06-10T19:52:23.433Z,18.53
2019-06-10T19:54:54.795Z,19.10
2019-06-10T19:57:25.739Z,23.57
2019-06-10T20:00:10.588Z,15.43
2019-06-10T20:02:32.614Z,17.20
2019-06-10T20:05:03.169Z,22.17
2019-06-10T20:07:34.479Z,21.07
2019-06-10T20:10:06.812Z,19.27
2019-06-10T20:12:38.458Z,21.23
2019-06-10T20:15:19.312Z,21.43
2019-06-10T20:17:52.507Z,21.03
2019-06-10T20:20:23.586Z,20.37
2019-06-10T20:22:57.385Z,20.90
2019-06-10T20:25:27.499Z,17.53
2019-06-10T20:27:58.643Z,21.53
2019-06-10T20:30:29.863Z,22.03
2019-06-10T20:33:03.424Z,29.87
2019-06-10T20:35:33.815Z,19.47
2019-06-10T20:38:05.308Z,28.60
2019-06-10T20:40:38.074Z,19.47
2019-06-10T20:43:08.834Z,21.97
2019-06-10T20:45:39.873Z,21.93
2019-06-10T20:48:10.610Z,27.33
2019-06-10T20:50:44.075Z,17.43
2019-06-10T20:53:18.516Z,19.60
2019-06-10T20:55:54.001Z,28.73
2019-06-10T20:58:19.836Z,19.63
2019-06-10T21:00:54.111Z,21.10
2019-06-10T21:03:23.422Z,19.33
2019-06-10T21:05:54.435Z,21.83
2019-06-10T21:08:26.366Z,28.33
2019-06-10T21:10:57.532Z,23.63
2019-06-10T21:13:28.335Z,21.20
2019-06-10T21:15:59.387Z,23.70
2019-06-10T21:18:32.718Z,21.57
2019-06-10T21:21:02.823Z,20.77
2019-06-10T21:23:33.564Z,19.13
2019-06-10T21:26:04.380Z,21.60
2019-06-10T21:28:35.254Z,21.23
2019-06-10T21:31:06.207Z,21.80
2019-06-10T21:33:38.612Z,20.20
2019-06-10T21:36:09.101Z,26.00
2019-06-10T21:38:39.858Z,18.53
2019-06-10T21:41:12.336Z,21.50
2019-06-10T21:43:48.129Z,22.67
2019-06-10T21:46:14.999Z,20.93
2019-06-10T21:48:47.370Z,23.47
2019-06-10T21:51:18.694Z,22.13
2019-06-10T21:53:50.650Z,21.67
2019-06-10T21:56:22.883Z,24.47
2019-06-10T21:58:55.384Z,21.50
2019-06-10T22:01:25.685Z,20.53
2019-06-10T22:04:00.727Z,20.57
2019-06-10T22:06:28.971Z,23.37
2019-06-10T22:08:59.900Z,20.90
2019-06-10T22:11:30.980Z,21.07
2019-06-10T22:14:02.782Z,22.47
2019-06-10T22:16:33.828Z,24.63
2019-06-10T22:19:04.679Z,26.13
2019-06-10T22:21:36.073Z,29.37
2019-06-10T22:24:06.957Z,27.67
2019-06-10T22:26:37.730Z,26.77
2019-06-10T22:29:08.802Z,25.47
2019-06-10T22:31:42.736Z,24.93
2019-06-10T22:34:14.340Z,22.07
2019-06-10T22:36:45.502Z,28.53
2019-06-10T22:39:16.788Z,26.20
2019-06-10T22:41:47.600Z,30.27
2019-06-10T22:44:18.774Z,26.93
2019-06-10T22:46:51.898Z,25.73
2019-06-10T22:49:23.696Z,25.17
2019-06-10T22:51:57.937Z,26.37
2019-06-10T22:54:27.410Z,23.50
2019-06-10T22:56:58.601Z,23.80
2019-06-10T22:59:29.708Z,26.77
2019-06-10T23:02:02.826Z,31.03
2019-06-10T23:04:33.407Z,24.97
2019-06-10T23:07:04.390Z,24.47
2019-06-10T23:09:35.595Z,27.07
2019-06-10T23:12:06.718Z,24.87
2019-06-10T23:14:38.594Z,25.57
2019-06-10T23:17:09.559Z,27.83
2019-06-10T23:19:42.746Z,24.87
2019-06-10T23:22:13.901Z,26.03
2019-06-10T23:24:45.025Z,26.73
2019-06-10T23:27:15.969Z,22.80
2019-06-10T23:29:46.803Z,24.00
2019-06-10T23:32:18.282Z,27.17
2019-06-10T23:34:48.909Z,40.83
2019-06-10T23:37:19.662Z,64.53
2019-06-10T23:39:50.719Z,35.13
2019-06-10T23:42:22.780Z,29.17
2019-06-10T23:44:53.594Z,31.27
2019-06-10T23:47:24.442Z,31.10
2019-06-10T23:49:55.655Z,27.47
2019-06-10T23:52:26.898Z,35.00
2019-06-10T23:54:58.186Z,24.60
2019-06-10T23:57:28.986Z,24.07
